createdAt,value
2018-09-19T00:00:42.811Z,22.17
2018-09-19T00:03:11.835Z,22.17
2018-09-19T00:05:41.362Z,22.16
2018-09-19T00:08:11.349Z,22.16
2018-09-19T00:10:40.655Z,22.15
2018-09-19T00:13:09.709Z,22.15
2018-09-19T00:15:38.962Z,22.12
2018-09-19T00:18:07.950Z,22.11
2018-09-19T00:20:37.432Z,22.09
2018-09-19T00:23:06.525Z,22.07
2018-09-19T00:25:35.749Z,22.07
2018-09-19T00:28:05.050Z,22.06
2018-09-19T00:30:34.399Z,22.06
2018-09-19T00:33:03.870Z,22.06
2018-09-19T00:35:32.851Z,22.05
2018-09-19T00:38:02.112Z,22.05
2018-09-19T00:40:31.944Z,22.04
2018-09-19T00:43:00.914Z,22.04
2018-09-19T00:45:30.315Z,22.03
2018-09-19T00:47:59.656Z,22.01
2018-09-19T00:50:28.797Z,22.00
2018-09-19T00:52:57.885Z,22.00
2018-09-19T00:55:26.868Z,22.01
2018-09-19T00:57:55.988Z,22.01
2018-09-19T01:00:25.102Z,22.03
2018-09-19T01:02:55.014Z,22.05
2018-09-19T01:05:24.180Z,22.06
2018-09-19T01:07:53.438Z,22.04
2018-09-19T01:10:23.395Z,22.03
2018-09-19T01:12:52.412Z,21.98
2018-09-19T01:15:21.394Z,21.93
2018-09-19T01:17:50.352Z,21.86
2018-09-19T01:20:19.540Z,21.83
2018-09-19T01:22:48.624Z,21.80
2018-09-19T01:25:18.525Z,21.79
2018-09-19T01:27:47.672Z,21.80
2018-09-19T01:30:16.939Z,21.82
2018-09-19T01:32:46.465Z,21.84
2018-09-19T01:35:15.481Z,21.85
2018-09-19T01:37:44.620Z,21.87
2018-09-19T01:40:13.838Z,21.87
2018-09-19T01:42:42.811Z,21.88
2018-09-19T01:45:12.011Z,21.89
2018-09-19T01:47:41.248Z,21.90
2018-09-19T01:50:10.456Z,21.92
2018-09-19T01:52:39.632Z,21.93
2018-09-19T01:55:08.802Z,21.92
2018-09-19T01:57:37.771Z,21.94
2018-09-19T02:00:07.091Z,21.95
2018-09-19T02:02:36.086Z,21.96
2018-09-19T02:05:06.510Z,21.98
2018-09-19T02:07:35.545Z,21.97
2018-09-19T02:10:04.902Z,21.96
2018-09-19T02:12:34.153Z,21.96
2018-09-19T02:15:06.225Z,21.95
2018-09-19T02:17:35.343Z,21.93
2018-09-19T02:20:05.120Z,21.90
2018-09-19T02:22:34.242Z,21.88
2018-09-19T02:25:03.969Z,21.86
2018-09-19T02:27:33.334Z,21.86
2018-09-19T02:30:02.591Z,21.85
2018-09-19T02:32:32.006Z,21.86
2018-09-19T02:35:01.415Z,21.86
2018-09-19T02:37:30.410Z,21.86
2018-09-19T02:39:59.548Z,21.87
2018-09-19T02:42:28.804Z,21.88
2018-09-19T02:44:57.932Z,21.88
2018-09-19T02:47:27.229Z,21.87
2018-09-19T02:49:56.390Z,21.87
2018-09-19T02:52:25.705Z,21.87
2018-09-19T02:54:54.816Z,21.89
2018-09-19T02:57:23.878Z,21.90
2018-09-19T02:59:53.422Z,21.89
2018-09-19T03:02:22.566Z,21.89
2018-09-19T03:04:51.696Z,21.88
2018-09-19T03:07:21.446Z,21.87
2018-09-19T03:09:50.861Z,21.85
2018-09-19T03:12:20.150Z,21.83
2018-09-19T03:14:49.372Z,21.82
2018-09-19T03:17:24.955Z,21.80
2018-09-19T03:19:54.174Z,21.80
2018-09-19T03:22:23.390Z,21.80
2018-09-19T03:24:52.647Z,21.80
2018-09-19T03:27:21.953Z,21.79
2018-09-19T03:29:51.626Z,21.79
2018-09-19T03:32:21.024Z,21.80
2018-09-19T03:34:50.431Z,21.79
2018-09-19T03:37:19.623Z,21.79
2018-09-19T03:39:48.958Z,21.78
2018-09-19T03:42:18.161Z,21.77
2018-09-19T03:44:47.144Z,21.75
2018-09-19T03:47:16.089Z,21.75
2018-09-19T03:49:45.406Z,21.73
2018-09-19T03:52:15.019Z,21.71
2018-09-19T03:54:44.232Z,21.69
2018-09-19T03:57:13.445Z,21.67
2018-09-19T03:59:42.649Z,21.66
2018-09-19T04:02:12.560Z,21.64
2018-09-19T04:04:41.864Z,21.61
2018-09-19T04:07:11.189Z,21.60
2018-09-19T04:09:40.565Z,21.59
2018-09-19T04:12:09.999Z,21.56
2018-09-19T04:14:39.402Z,21.53
2018-09-19T04:17:08.556Z,21.52
2018-09-19T04:19:37.725Z,21.43
2018-09-19T04:22:07.700Z,21.53
2018-09-19T04:24:37.443Z,21.54
2018-09-19T04:27:06.924Z,21.54
2018-09-19T04:29:36.126Z,21.54
2018-09-19T04:32:05.487Z,21.55
2018-09-19T04:34:34.676Z,21.56
2018-09-19T04:37:04.819Z,21.57
2018-09-19T04:39:34.068Z,21.60
2018-09-19T04:42:03.244Z,21.63
2018-09-19T04:44:32.538Z,21.63
2018-09-19T04:47:01.822Z,21.63
2018-09-19T04:49:31.222Z,21.65
2018-09-19T04:52:00.304Z,21.64
2018-09-19T04:54:29.668Z,21.65
2018-09-19T04:56:58.986Z,21.65
2018-09-19T04:59:28.267Z,21.66
2018-09-19T05:01:57.837Z,21.65
2018-09-19T05:04:27.068Z,21.64
2018-09-19T05:06:56.062Z,21.61
2018-09-19T05:09:25.907Z,21.61
2018-09-19T05:11:55.793Z,21.61
2018-09-19T05:14:25.000Z,21.58
2018-09-19T05:16:54.008Z,21.57
2018-09-19T05:19:23.262Z,21.56
2018-09-19T05:21:52.356Z,21.54
2018-09-19T05:24:21.679Z,21.50
2018-09-19T05:26:51.028Z,21.47
2018-09-19T05:29:20.368Z,21.43
2018-09-19T05:31:49.809Z,21.39
2018-09-19T05:34:18.861Z,21.35
2018-09-19T05:36:48.094Z,21.31
2018-09-19T05:39:17.396Z,21.27
2018-09-19T05:41:47.584Z,21.26
2018-09-19T05:44:16.874Z,21.25
2018-09-19T05:46:46.045Z,21.26
2018-09-19T05:49:15.097Z,21.26
2018-09-19T05:51:44.318Z,21.24
2018-09-19T05:54:13.424Z,21.23
2018-09-19T05:56:42.581Z,21.23
2018-09-19T05:59:11.842Z,21.23
2018-09-19T06:01:41.521Z,21.23
2018-09-19T06:04:10.669Z,21.22
2018-09-19T06:06:40.217Z,21.23
2018-09-19T06:09:10.705Z,21.24
2018-09-19T06:11:41.513Z,21.24
2018-09-19T06:14:10.619Z,21.24
2018-09-19T06:16:39.775Z,21.25
2018-09-19T06:19:09.048Z,21.25
2018-09-19T06:21:38.485Z,21.27
2018-09-19T06:24:08.079Z,21.29
2018-09-19T06:26:37.460Z,21.32
2018-09-19T06:29:06.941Z,21.34
2018-09-19T06:31:36.024Z,21.36
2018-09-19T06:34:05.430Z,21.40
2018-09-19T06:36:34.707Z,21.44
2018-09-19T06:39:04.986Z,21.48
2018-09-19T06:41:34.001Z,21.52
2018-09-19T06:44:03.443Z,21.56
2018-09-19T06:46:32.785Z,21.61
2018-09-19T06:49:02.753Z,21.64
2018-09-19T06:51:32.093Z,21.71
2018-09-19T06:54:01.606Z,21.76
2018-09-19T06:56:30.693Z,21.81
2018-09-19T06:58:59.884Z,21.85
2018-09-19T07:01:29.038Z,21.93
2018-09-19T07:03:58.523Z,22.00
2018-09-19T07:06:27.827Z,22.07
2018-09-19T07:08:57.014Z,22.15
2018-09-19T07:11:26.331Z,22.22
2018-09-19T07:13:55.403Z,22.29
2018-09-19T07:16:24.718Z,22.36
2018-09-19T07:18:54.308Z,22.40
2018-09-19T07:21:24.193Z,22.46
2018-09-19T07:23:53.709Z,22.51
2018-09-19T07:26:23.548Z,22.55
2018-09-19T07:28:52.911Z,22.61
2018-09-19T07:31:22.104Z,22.66
2018-09-19T07:33:51.604Z,22.69
2018-09-19T07:36:21.815Z,22.70
2018-09-19T07:38:51.179Z,22.72
2018-09-19T07:41:20.169Z,22.75
2018-09-19T07:43:49.581Z,22.79
2018-09-19T07:46:19.014Z,22.82
2018-09-19T07:48:48.480Z,22.87
2018-09-19T07:51:17.482Z,22.92
2018-09-19T07:53:46.428Z,22.98
2018-09-19T07:56:15.377Z,23.02
2018-09-19T07:58:44.318Z,23.09
2018-09-19T08:01:13.662Z,23.16
2018-09-19T08:03:43.139Z,23.23
2018-09-19T08:06:12.398Z,23.28
2018-09-19T08:08:41.518Z,23.32
2018-09-19T08:11:10.964Z,23.37
2018-09-19T08:13:40.178Z,23.42
2018-09-19T08:16:09.861Z,23.46
2018-09-19T08:18:39.182Z,23.50
2018-09-19T08:21:08.450Z,23.56
2018-09-19T08:23:37.516Z,23.61
2018-09-19T08:26:06.827Z,23.66
2018-09-19T08:28:36.284Z,23.72
2018-09-19T08:31:05.687Z,23.77
2018-09-19T08:33:35.128Z,23.83
2018-09-19T08:36:04.537Z,23.90
2018-09-19T08:38:33.737Z,23.97
2018-09-19T08:41:03.094Z,24.03
2018-09-19T08:43:32.147Z,24.10
2018-09-19T08:46:01.434Z,24.15
2018-09-19T08:48:30.850Z,24.22
2018-09-19T08:51:00.133Z,24.28
2018-09-19T08:53:30.605Z,24.33
2018-09-19T08:55:59.944Z,24.39
2018-09-19T08:58:29.392Z,24.44
2018-09-19T09:00:59.595Z,24.49
2018-09-19T09:03:28.622Z,24.55
2018-09-19T09:05:57.932Z,24.60
2018-09-19T09:08:27.950Z,24.65
2018-09-19T09:10:57.621Z,24.72
2018-09-19T09:13:27.518Z,24.81
2018-09-19T09:15:56.738Z,24.90
2018-09-19T09:18:26.005Z,24.98
2018-09-19T09:20:55.907Z,25.08
2018-09-19T09:23:24.892Z,25.16
2018-09-19T09:25:53.959Z,25.25
2018-09-19T09:28:23.222Z,25.36
2018-09-19T09:30:52.266Z,25.47
2018-09-19T09:33:21.539Z,25.55
2018-09-19T09:35:50.760Z,25.64
2018-09-19T09:38:19.920Z,25.73
2018-09-19T09:40:49.388Z,25.79
2018-09-19T09:43:18.855Z,25.84
2018-09-19T09:45:48.747Z,25.90
2018-09-19T09:48:17.919Z,25.92
2018-09-19T09:50:47.240Z,25.93
2018-09-19T09:53:16.549Z,26.00
2018-09-19T09:55:45.665Z,26.05
2018-09-19T09:58:15.135Z,26.10
2018-09-19T10:00:44.514Z,26.15
2018-09-19T10:03:14.077Z,26.20
2018-09-19T10:05:43.850Z,26.23
2018-09-19T10:08:13.591Z,26.25
2018-09-19T10:10:42.695Z,26.25
2018-09-19T10:13:12.214Z,26.30
2018-09-19T10:15:41.408Z,26.39
2018-09-19T10:18:10.792Z,26.46
2018-09-19T10:20:39.956Z,26.58
2018-09-19T10:23:09.279Z,26.67
2018-09-19T10:25:38.401Z,26.76
2018-09-19T10:28:07.505Z,26.83
2018-09-19T10:30:36.689Z,26.89
2018-09-19T10:33:06.148Z,26.93
2018-09-19T10:35:35.683Z,27.00
2018-09-19T10:38:04.955Z,27.04
2018-09-19T10:40:34.393Z,27.06
2018-09-19T10:43:03.583Z,27.09
2018-09-19T10:45:33.076Z,27.09
2018-09-19T10:48:02.178Z,27.11
2018-09-19T10:50:32.256Z,27.16
2018-09-19T10:53:01.470Z,27.19
2018-09-19T10:55:30.743Z,27.24
2018-09-19T10:58:00.540Z,27.29
2018-09-19T11:00:30.071Z,27.34
2018-09-19T11:02:59.610Z,27.38
2018-09-19T11:05:29.022Z,27.41
2018-09-19T11:07:58.887Z,27.46
2018-09-19T11:10:28.033Z,27.49
2018-09-19T11:13:03.599Z,27.52
2018-09-19T11:15:33.443Z,27.52
2018-09-19T11:18:02.564Z,27.51
2018-09-19T11:20:31.611Z,27.50
2018-09-19T11:23:01.324Z,27.49
2018-09-19T11:25:30.495Z,27.50
2018-09-19T11:27:59.556Z,27.53
2018-09-19T11:30:28.639Z,27.55
2018-09-19T11:32:58.084Z,27.56
2018-09-19T11:35:27.363Z,27.59
2018-09-19T11:37:56.671Z,27.65
2018-09-19T11:40:25.963Z,27.70
2018-09-19T11:42:55.854Z,27.74
2018-09-19T11:45:24.986Z,27.80
2018-09-19T11:47:54.440Z,27.79
2018-09-19T11:50:23.588Z,27.79
2018-09-19T11:52:52.705Z,27.84
2018-09-19T11:55:22.395Z,27.89
2018-09-19T11:57:52.104Z,27.93
2018-09-19T12:00:21.849Z,27.98
2018-09-19T12:02:51.041Z,28.02
2018-09-19T12:05:20.132Z,28.03
2018-09-19T12:07:50.383Z,28.05
2018-09-19T12:10:19.376Z,28.08
2018-09-19T12:12:49.446Z,28.14
2018-09-19T12:15:19.057Z,28.20
2018-09-19T12:17:48.255Z,28.23
2018-09-19T12:20:17.261Z,28.26
2018-09-19T12:22:46.705Z,28.25
2018-09-19T12:25:15.847Z,28.23
2018-09-19T12:27:45.176Z,28.20
2018-09-19T12:30:14.292Z,28.18
2018-09-19T12:32:44.167Z,28.15
2018-09-19T12:35:13.436Z,28.15
2018-09-19T12:37:42.557Z,28.16
2018-09-19T12:40:11.625Z,28.17
2018-09-19T12:42:41.206Z,28.18
2018-09-19T12:45:10.408Z,28.21
2018-09-19T12:47:39.509Z,28.21
2018-09-19T12:50:08.541Z,28.18
2018-09-19T12:52:37.519Z,28.16
2018-09-19T12:55:06.735Z,28.12
2018-09-19T12:57:35.837Z,28.08
2018-09-19T13:00:05.132Z,28.05
2018-09-19T13:02:34.410Z,28.06
2018-09-19T13:05:03.566Z,28.09
2018-09-19T13:07:32.838Z,28.13
2018-09-19T13:10:02.021Z,28.16
2018-09-19T13:12:31.058Z,28.18
2018-09-19T13:15:00.512Z,28.20
2018-09-19T13:17:30.018Z,28.22
2018-09-19T13:19:59.285Z,28.25
2018-09-19T13:22:28.397Z,28.22
2018-09-19T13:24:57.852Z,28.22
2018-09-19T13:27:27.131Z,28.26
2018-09-19T13:29:56.496Z,28.31
2018-09-19T13:32:25.949Z,28.34
2018-09-19T13:34:55.060Z,28.36
2018-09-19T13:37:24.027Z,28.39
2018-09-19T13:39:53.510Z,28.42
2018-09-19T13:42:22.595Z,28.46
2018-09-19T13:44:51.888Z,28.48
2018-09-19T13:47:20.901Z,28.48
2018-09-19T13:49:54.834Z,28.46
2018-09-19T13:52:23.702Z,28.43
2018-09-19T13:54:53.395Z,28.40
2018-09-19T13:57:22.715Z,28.39
2018-09-19T13:59:53.101Z,28.36
2018-09-19T14:02:22.484Z,28.32
2018-09-19T14:04:52.137Z,28.30
2018-09-19T14:07:21.371Z,28.28
2018-09-19T14:09:50.608Z,28.26
2018-09-19T14:12:20.282Z,28.25
2018-09-19T14:14:49.898Z,28.25
2018-09-19T14:17:18.902Z,28.24
2018-09-19T14:19:47.870Z,28.22
2018-09-19T14:22:17.124Z,28.21
2018-09-19T14:24:47.030Z,28.18
2018-09-19T14:27:16.286Z,28.15
2018-09-19T14:29:45.761Z,28.14
2018-09-19T14:32:14.995Z,28.13
2018-09-19T14:34:45.427Z,28.13
2018-09-19T14:37:15.114Z,28.17
2018-09-19T14:39:44.367Z,28.24
2018-09-19T14:42:13.666Z,28.32
2018-09-19T14:44:42.935Z,28.43
2018-09-19T14:47:12.031Z,28.52
2018-09-19T14:49:41.425Z,28.59
2018-09-19T14:52:10.537Z,28.61
2018-09-19T14:54:39.812Z,28.61
2018-09-19T14:57:09.591Z,28.61
2018-09-19T14:59:38.869Z,28.58
2018-09-19T15:02:08.120Z,28.55
2018-09-19T15:04:37.270Z,28.49
2018-09-19T15:07:06.789Z,28.43
2018-09-19T15:09:35.725Z,28.40
2018-09-19T15:12:05.015Z,28.38
2018-09-19T15:14:34.156Z,28.36
2018-09-19T15:17:03.428Z,28.34
2018-09-19T15:19:32.804Z,28.30
2018-09-19T15:22:02.189Z,28.29
2018-09-19T15:24:31.688Z,28.28
2018-09-19T15:27:01.551Z,28.27
2018-09-19T15:29:30.490Z,28.27
2018-09-19T15:31:59.845Z,28.26
2018-09-19T15:34:29.017Z,28.21
2018-09-19T15:36:58.579Z,28.17
2018-09-19T15:39:28.102Z,28.16
2018-09-19T15:41:57.151Z,28.13
2018-09-19T15:44:26.553Z,28.11
2018-09-19T15:46:56.136Z,28.08
2018-09-19T15:49:25.438Z,28.05
2018-09-19T15:51:54.707Z,28.03
2018-09-19T15:54:24.335Z,28.02
2018-09-19T15:56:53.498Z,28.00
2018-09-19T15:59:22.559Z,27.98
2018-09-19T16:01:51.489Z,27.95
2018-09-19T16:04:20.918Z,27.94
2018-09-19T16:06:51.984Z,27.92
2018-09-19T16:09:21.103Z,27.90
2018-09-19T16:11:50.547Z,27.89
2018-09-19T16:14:19.949Z,27.86
2018-09-19T16:16:48.927Z,27.83
2018-09-19T16:19:18.311Z,27.80
2018-09-19T16:21:47.480Z,27.75
2018-09-19T16:24:16.624Z,27.71
2018-09-19T16:26:45.600Z,27.68
2018-09-19T16:29:14.796Z,27.65
2018-09-19T16:31:44.124Z,27.61
2018-09-19T16:34:13.196Z,27.56
2018-09-19T16:36:42.846Z,27.51
2018-09-19T16:39:12.992Z,27.49
2018-09-19T16:41:42.468Z,27.45
2018-09-19T16:44:12.215Z,27.41
2018-09-19T16:46:41.901Z,27.37
2018-09-19T16:49:11.138Z,27.32
2018-09-19T16:51:40.890Z,27.27
2018-09-19T16:54:09.886Z,27.23
2018-09-19T16:56:38.895Z,27.19
2018-09-19T16:59:08.703Z,27.15
2018-09-19T17:01:37.775Z,27.09
2018-09-19T17:04:06.792Z,27.05
2018-09-19T17:06:36.020Z,27.01
2018-09-19T17:09:06.188Z,26.97
2018-09-19T17:11:35.386Z,26.91
2018-09-19T17:14:04.471Z,26.85
2018-09-19T17:16:33.793Z,26.78
2018-09-19T17:19:03.245Z,26.72
2018-09-19T17:21:32.405Z,26.67
2018-09-19T17:24:01.436Z,26.61
2018-09-19T17:26:30.700Z,26.59
2018-09-19T17:29:00.320Z,26.54
2018-09-19T17:31:29.606Z,26.55
2018-09-19T17:33:58.978Z,26.61
2018-09-19T17:36:28.325Z,26.71
2018-09-19T17:38:57.866Z,26.89
2018-09-19T17:41:27.311Z,27.12
2018-09-19T17:43:56.417Z,27.38
2018-09-19T17:46:25.846Z,27.68
2018-09-19T17:48:55.704Z,27.96
2018-09-19T17:51:25.157Z,28.23
2018-09-19T17:53:54.374Z,28.52
2018-09-19T17:56:23.932Z,28.77
2018-09-19T17:58:53.150Z,29.01
2018-09-19T18:01:22.989Z,29.25
2018-09-19T18:03:52.031Z,29.39
2018-09-19T18:06:21.557Z,29.45
2018-09-19T18:08:50.728Z,29.45
2018-09-19T18:11:19.911Z,29.36
2018-09-19T18:13:50.142Z,29.21
2018-09-19T18:16:19.377Z,29.03
2018-09-19T18:18:48.831Z,28.83
2018-09-19T18:21:18.335Z,28.62
2018-09-19T18:23:47.381Z,28.41
2018-09-19T18:26:16.453Z,28.19
2018-09-19T18:28:45.595Z,27.99
2018-09-19T18:31:14.976Z,27.82
2018-09-19T18:33:44.188Z,27.64
2018-09-19T18:36:13.099Z,27.46
2018-09-19T18:38:42.465Z,27.28
2018-09-19T18:41:11.549Z,27.12
2018-09-19T18:43:40.643Z,26.96
2018-09-19T18:46:10.678Z,26.82
2018-09-19T18:48:39.795Z,26.68
2018-09-19T18:51:09.249Z,26.55
2018-09-19T18:53:38.747Z,26.42
2018-09-19T18:56:08.202Z,26.29
2018-09-19T18:58:37.317Z,26.18
2018-09-19T19:01:06.609Z,26.07
2018-09-19T19:03:35.908Z,25.97
2018-09-19T19:06:05.541Z,25.86
2018-09-19T19:08:35.178Z,25.79
2018-09-19T19:11:04.307Z,25.71
2018-09-19T19:13:33.724Z,25.65
2018-09-19T19:16:03.128Z,25.59
2018-09-19T19:18:32.636Z,25.55
2018-09-19T19:21:02.095Z,25.49
2018-09-19T19:23:31.340Z,25.45
2018-09-19T19:26:00.601Z,25.42
2018-09-19T19:28:29.921Z,25.38
2018-09-19T19:30:59.252Z,25.34
2018-09-19T19:33:28.690Z,25.30
2018-09-19T19:35:58.135Z,25.25
2018-09-19T19:38:28.813Z,25.20
2018-09-19T19:40:58.347Z,25.14
2018-09-19T19:43:27.736Z,25.11
2018-09-19T19:45:57.484Z,25.08
2018-09-19T19:48:26.844Z,25.05
2018-09-19T19:50:56.081Z,25.03
2018-09-19T19:53:25.383Z,25.00
2018-09-19T19:55:55.062Z,24.95
2018-09-19T19:58:24.644Z,24.88
2018-09-19T20:00:54.456Z,24.81
2018-09-19T20:03:23.797Z,24.76
2018-09-19T20:05:53.107Z,24.69
2018-09-19T20:08:22.298Z,24.63
2018-09-19T20:10:51.352Z,24.59
2018-09-19T20:13:20.714Z,24.55
2018-09-19T20:15:49.967Z,24.52
2018-09-19T20:18:18.917Z,24.48
2018-09-19T20:20:48.375Z,24.45
2018-09-19T20:23:17.650Z,24.40
2018-09-19T20:25:47.312Z,24.36
2018-09-19T20:28:16.639Z,24.33
2018-09-19T20:30:45.837Z,24.29
2018-09-19T20:33:15.123Z,24.25
2018-09-19T20:35:44.244Z,24.23
2018-09-19T20:38:13.998Z,24.19
2018-09-19T20:40:42.938Z,24.14
2018-09-19T20:43:12.016Z,24.09
2018-09-19T20:45:41.228Z,24.05
2018-09-19T20:48:10.918Z,24.02
2018-09-19T20:50:40.176Z,23.97
2018-09-19T20:53:09.441Z,23.95
2018-09-19T20:55:38.625Z,23.93
2018-09-19T20:58:07.729Z,23.91
2018-09-19T21:00:37.124Z,23.88
2018-09-19T21:03:06.617Z,23.84
2018-09-19T21:05:35.900Z,23.82
2018-09-19T21:08:05.242Z,23.80
2018-09-19T21:10:34.624Z,23.76
2018-09-19T21:13:03.870Z,23.72
2018-09-19T21:15:33.348Z,23.67
2018-09-19T21:18:02.753Z,23.64
2018-09-19T21:20:32.155Z,23.59
2018-09-19T21:23:01.265Z,23.56
2018-09-19T21:25:30.557Z,23.50
2018-09-19T21:27:59.842Z,23.47
2018-09-19T21:30:29.050Z,23.43
2018-09-19T21:32:58.281Z,23.40
2018-09-19T21:35:27.567Z,23.37
2018-09-19T21:37:56.512Z,23.35
2018-09-19T21:40:26.065Z,23.33
2018-09-19T21:42:55.418Z,23.30
2018-09-19T21:45:24.414Z,23.26
2018-09-19T21:47:53.612Z,23.21
2018-09-19T21:50:22.799Z,23.15
2018-09-19T21:52:52.043Z,23.12
2018-09-19T21:55:21.283Z,23.09
2018-09-19T21:57:50.482Z,23.06
2018-09-19T22:00:19.912Z,23.06
2018-09-19T22:02:49.109Z,23.06
2018-09-19T22:05:18.272Z,23.08
2018-09-19T22:07:47.471Z,23.07
2018-09-19T22:10:16.565Z,23.07
2018-09-19T22:12:46.057Z,23.06
2018-09-19T22:15:15.539Z,23.06
2018-09-19T22:17:44.843Z,23.05
2018-09-19T22:20:14.003Z,23.06
2018-09-19T22:22:43.220Z,23.08
2018-09-19T22:25:12.507Z,23.08
2018-09-19T22:27:41.602Z,23.08
2018-09-19T22:30:10.889Z,23.10
2018-09-19T22:32:39.926Z,23.10
2018-09-19T22:35:08.915Z,23.10
2018-09-19T22:37:38.285Z,23.12
2018-09-19T22:40:10.121Z,23.12
2018-09-19T22:42:39.352Z,23.13
2018-09-19T22:45:08.748Z,23.12
2018-09-19T22:47:37.867Z,23.12
2018-09-19T22:50:07.157Z,23.12
2018-09-19T22:52:36.519Z,23.11
2018-09-19T22:55:05.929Z,23.10
2018-09-19T22:57:35.194Z,23.09
2018-09-19T23:00:04.459Z,23.08
2018-09-19T23:02:33.525Z,23.09
2018-09-19T23:05:02.671Z,23.09
2018-09-19T23:07:32.189Z,23.11
2018-09-19T23:10:01.752Z,23.12
2018-09-19T23:12:30.957Z,23.13
2018-09-19T23:15:00.248Z,23.12
2018-09-19T23:17:29.990Z,23.10
2018-09-19T23:19:59.762Z,23.08
2018-09-19T23:22:29.259Z,23.04
2018-09-19T23:24:58.344Z,23.02
2018-09-19T23:27:27.633Z,23.00
2018-09-19T23:29:57.637Z,22.99
2018-09-19T23:32:26.968Z,22.98
2018-09-19T23:34:56.295Z,22.96
2018-09-19T23:37:25.611Z,22.94
2018-09-19T23:39:54.642Z,22.93
2018-09-19T23:42:23.883Z,22.90
2018-09-19T23:44:53.216Z,22.86
2018-09-19T23:47:22.470Z,22.83
2018-09-19T23:49:51.606Z,22.80
2018-09-19T23:52:20.951Z,22.78
2018-09-19T23:54:51.393Z,22.81
2018-09-19T23:57:20.561Z,22.82
2018-09-19T23:59:49.886Z,22.82
